createdAt,value
2022-07-28T00:00:48.981Z,45.06
2022-07-28T00:03:17.593Z,44.73
2022-07-28T00:05:47.059Z,44.88
2022-07-28T00:08:17.883Z,45.44
2022-07-28T00:10:46.363Z,45.83
2022-07-28T00:13:14.877Z,45.54
2022-07-28T00:15:43.341Z,45.85
2022-07-28T00:18:13.267Z,45.96
2022-07-28T00:20:41.787Z,46.52
2022-07-28T00:23:10.348Z,46.47
2022-07-28T00:25:38.862Z,46.23
2022-07-28T00:28:07.457Z,46.37
2022-07-28T00:30:36.308Z,46.63
2022-07-28T00:33:05.141Z,46.80
2022-07-28T00:35:35.041Z,47.07
2022-07-28T00:38:03.747Z,46.89
2022-07-28T00:40:46.058Z,46.76
2022-07-28T00:43:14.825Z,47.13
2022-07-28T00:45:43.663Z,47.02
2022-07-28T00:48:12.095Z,46.95
2022-07-28T00:50:42.427Z,47.01
2022-07-28T00:53:10.888Z,47.19
2022-07-28T00:56:05.920Z,47.22
2022-07-28T00:58:30.812Z,47.23
2022-07-28T01:00:59.605Z,47.56
2022-07-28T01:03:28.931Z,47.48
2022-07-28T01:06:08.791Z,47.85
2022-07-28T01:08:51.863Z,47.65
2022-07-28T01:11:32.166Z,47.85
2022-07-28T01:14:19.419Z,47.73
2022-07-28T01:16:55.988Z,48.19
2022-07-28T01:19:38.418Z,48.09
2022-07-28T01:22:14.413Z,48.56
2022-07-28T01:24:52.658Z,48.45
2022-07-28T01:27:39.267Z,48.31
2022-07-28T01:30:27.724Z,48.34
2022-07-28T01:33:03.855Z,48.35
2022-07-28T01:35:38.487Z,48.59
2022-07-28T01:38:11.628Z,48.46
2022-07-28T01:40:43.483Z,48.44
2022-07-28T01:43:21.890Z,48.20
2022-07-28T01:45:51.880Z,48.46
2022-07-28T01:48:22.349Z,48.69
2022-07-28T01:50:52.213Z,48.65
2022-07-28T01:53:21.846Z,48.45
2022-07-28T01:55:52.278Z,48.51
2022-07-28T01:58:24.076Z,48.65
2022-07-28T02:00:55.039Z,48.84
2022-07-28T02:03:25.790Z,48.78
2022-07-28T02:05:56.668Z,49.09
2022-07-28T02:08:26.042Z,49.07
2022-07-28T02:11:14.843Z,48.99
2022-07-28T02:13:44.459Z,49.00
2022-07-28T02:16:17.005Z,49.09
2022-07-28T02:18:46.589Z,49.14
2022-07-28T02:21:17.205Z,48.95
2022-07-28T02:23:49.173Z,49.13
2022-07-28T02:26:19.801Z,49.28
2022-07-28T02:28:51.429Z,49.40
2022-07-28T02:31:27.759Z,49.45
2022-07-28T02:34:02.317Z,49.47
2022-07-28T02:36:36.451Z,49.56
2022-07-28T02:39:09.459Z,49.50
2022-07-28T02:41:41.530Z,49.68
2022-07-28T02:44:18.752Z,49.34
2022-07-28T02:46:54.076Z,49.75
2022-07-28T02:49:29.430Z,49.97
2022-07-28T02:51:59.739Z,49.75
2022-07-28T02:54:29.116Z,50.25
2022-07-28T02:56:59.745Z,50.33
2022-07-28T02:59:30.277Z,50.53
2022-07-28T03:02:01.546Z,50.35
2022-07-28T03:04:48.206Z,50.25
2022-07-28T03:07:17.559Z,50.75
2022-07-28T03:09:48.813Z,50.63
2022-07-28T03:12:17.428Z,50.74
2022-07-28T03:14:45.920Z,50.53
2022-07-28T03:17:16.335Z,50.70
2022-07-28T03:19:45.189Z,50.68
2022-07-28T03:22:14.133Z,50.88
2022-07-28T03:24:48.102Z,51.08
2022-07-28T03:27:27.719Z,51.28
2022-07-28T03:30:03.897Z,51.28
2022-07-28T03:32:39.898Z,51.42
2022-07-28T03:35:09.644Z,51.59
2022-07-28T03:37:45.268Z,51.79
2022-07-28T03:40:15.284Z,51.80
2022-07-28T03:42:47.663Z,51.56
2022-07-28T03:45:17.256Z,51.87
2022-07-28T03:47:55.023Z,51.95
2022-07-28T03:50:24.837Z,51.64
2022-07-28T03:52:54.647Z,52.00
2022-07-28T03:55:23.672Z,51.31
2022-07-28T03:57:52.367Z,51.65
2022-07-28T04:00:22.537Z,51.15
2022-07-28T04:02:53.000Z,51.22
2022-07-28T04:05:21.998Z,51.28
2022-07-28T04:07:50.444Z,50.81
2022-07-28T04:10:19.405Z,50.36
2022-07-28T04:12:49.713Z,51.30
2022-07-28T04:15:18.942Z,51.20
2022-07-28T04:17:48.742Z,51.44
2022-07-28T04:20:20.246Z,51.01
2022-07-28T04:22:49.768Z,50.73
2022-07-28T04:25:21.868Z,50.79
2022-07-28T04:27:50.651Z,51.48
2022-07-28T04:30:21.461Z,50.92
2022-07-28T04:32:52.019Z,50.83
2022-07-28T04:35:24.162Z,51.09
2022-07-28T04:37:55.198Z,51.09
2022-07-28T04:40:23.693Z,51.28
2022-07-28T04:42:52.550Z,51.49
2022-07-28T04:45:21.209Z,51.07
2022-07-28T04:47:49.699Z,51.80
2022-07-28T04:50:20.106Z,51.07
2022-07-28T04:52:50.217Z,51.02
2022-07-28T04:55:19.585Z,51.20
2022-07-28T04:57:48.195Z,51.00
2022-07-28T05:00:17.530Z,51.43
2022-07-28T05:02:47.993Z,51.58
2022-07-28T05:05:16.658Z,51.40
2022-07-28T05:07:45.515Z,51.48
2022-07-28T05:10:15.320Z,51.21
2022-07-28T05:12:45.363Z,51.20
2022-07-28T05:15:14.065Z,51.56
2022-07-28T05:17:42.499Z,51.70
2022-07-28T05:20:14.226Z,52.03
2022-07-28T05:22:43.960Z,51.30
2022-07-28T05:25:22.772Z,51.83
2022-07-28T05:27:52.205Z,52.31
2022-07-28T05:30:21.445Z,52.70
2022-07-28T05:32:51.085Z,52.32
2022-07-28T05:35:19.615Z,52.73
2022-07-28T05:37:48.129Z,52.63
2022-07-28T05:40:18.322Z,52.44
2022-07-28T05:42:48.554Z,52.74
2022-07-28T05:45:17.949Z,52.50
2022-07-28T05:47:48.204Z,52.43
2022-07-28T05:50:18.476Z,52.27
2022-07-28T05:52:47.712Z,52.25
2022-07-28T05:55:17.519Z,52.22
2022-07-28T05:57:47.699Z,52.22
2022-07-28T06:00:20.020Z,52.15
2022-07-28T06:02:50.282Z,51.86
2022-07-28T06:05:20.555Z,51.37
2022-07-28T06:07:50.715Z,50.49
2022-07-28T06:10:21.876Z,50.15
2022-07-28T06:12:54.005Z,47.41
2022-07-28T06:15:24.682Z,45.89
2022-07-28T06:17:55.622Z,44.75
2022-07-28T06:20:25.449Z,44.38
2022-07-28T06:22:56.071Z,43.99
2022-07-28T06:25:27.613Z,44.25
2022-07-28T06:27:59.205Z,44.97
2022-07-28T06:30:28.470Z,44.46
2022-07-28T06:32:57.652Z,42.61
2022-07-28T06:35:26.765Z,40.86
2022-07-28T06:37:55.459Z,39.95
2022-07-28T06:40:24.929Z,39.93
2022-07-28T06:42:53.877Z,39.76
2022-07-28T06:45:23.752Z,38.98
2022-07-28T06:47:53.194Z,39.14
2022-07-28T06:50:24.373Z,38.51
2022-07-28T06:52:56.802Z,37.94
2022-07-28T06:55:25.538Z,38.00
2022-07-28T06:58:03.080Z,37.37
2022-07-28T07:00:33.164Z,37.02
2022-07-28T07:03:01.827Z,37.59
2022-07-28T07:05:32.439Z,38.42
2022-07-28T07:08:01.539Z,37.98
2022-07-28T07:10:30.003Z,37.97
2022-07-28T07:12:58.443Z,37.80
2022-07-28T07:15:27.032Z,37.08
2022-07-28T07:17:57.084Z,37.50
2022-07-28T07:20:25.561Z,36.44
2022-07-28T07:22:54.044Z,37.75
2022-07-28T07:25:22.518Z,37.21
2022-07-28T07:27:50.978Z,36.96
2022-07-28T07:30:19.450Z,36.22
2022-07-28T07:32:48.042Z,35.34
2022-07-28T07:35:18.464Z,35.07
2022-07-28T07:37:46.914Z,36.36
2022-07-28T07:40:15.345Z,35.87
2022-07-28T07:42:43.807Z,36.15
2022-07-28T07:45:12.565Z,36.10
2022-07-28T07:47:41.013Z,34.32
2022-07-28T07:50:10.362Z,33.22
2022-07-28T07:52:40.268Z,33.61
2022-07-28T07:55:10.282Z,34.60
2022-07-28T07:57:38.916Z,34.43
2022-07-28T08:00:28.589Z,34.04
2022-07-28T08:02:57.625Z,33.46
2022-07-28T08:05:34.994Z,32.69
2022-07-28T08:08:06.791Z,33.32
2022-07-28T08:10:35.434Z,32.37
2022-07-28T08:13:04.732Z,31.55
2022-07-28T08:15:33.724Z,30.88
2022-07-28T08:18:02.541Z,31.00
2022-07-28T08:20:31.305Z,31.24
2022-07-28T08:22:59.809Z,30.30
2022-07-28T08:25:30.637Z,30.78
2022-07-28T08:27:59.077Z,31.03
2022-07-28T08:30:32.331Z,30.35
2022-07-28T08:33:02.940Z,30.23
2022-07-28T08:35:34.007Z,29.45
2022-07-28T08:38:04.953Z,29.92
2022-07-28T08:40:37.531Z,29.51
2022-07-28T08:43:16.881Z,30.42
2022-07-28T08:45:49.055Z,29.69
2022-07-28T08:48:19.302Z,30.34
2022-07-28T08:50:48.998Z,30.58
2022-07-28T08:53:20.101Z,30.23
2022-07-28T08:55:50.835Z,30.52
2022-07-28T08:58:19.625Z,31.23
2022-07-28T09:00:48.544Z,29.92
2022-07-28T09:03:19.048Z,30.52
2022-07-28T09:05:50.012Z,30.13
2022-07-28T09:08:19.679Z,29.92
2022-07-28T09:10:49.882Z,29.90
2022-07-28T09:13:19.182Z,30.59
2022-07-28T09:15:48.478Z,30.78
2022-07-28T09:18:20.658Z,30.56
2022-07-28T09:20:49.107Z,31.46
2022-07-28T09:23:41.854Z,31.19
2022-07-28T09:26:12.366Z,30.67
2022-07-28T09:28:57.018Z,31.19
2022-07-28T09:31:28.735Z,31.70
2022-07-28T09:34:01.478Z,31.31
2022-07-28T09:36:31.471Z,31.33
2022-07-28T09:38:59.962Z,31.70
2022-07-28T09:41:29.879Z,30.94
2022-07-28T09:43:58.408Z,31.11
2022-07-28T09:46:30.552Z,30.96
2022-07-28T09:49:02.306Z,30.84
2022-07-28T09:51:34.273Z,30.95
2022-07-28T09:54:10.653Z,30.85
2022-07-28T09:56:43.333Z,30.24
2022-07-28T09:59:13.271Z,30.45
2022-07-28T10:01:54.961Z,30.31
2022-07-28T10:04:35.114Z,29.57
2022-07-28T10:07:06.855Z,29.77
2022-07-28T10:09:35.628Z,29.57
2022-07-28T10:12:21.073Z,29.90
2022-07-28T10:14:51.976Z,29.69
2022-07-28T10:17:30.462Z,29.32
2022-07-28T10:20:00.516Z,29.04
2022-07-28T10:22:33.301Z,28.56
2022-07-28T10:25:05.056Z,28.09
2022-07-28T10:27:35.233Z,28.74
2022-07-28T10:30:06.782Z,29.23
2022-07-28T10:32:40.008Z,30.12
2022-07-28T10:35:12.501Z,29.37
2022-07-28T10:37:47.671Z,29.38
2022-07-28T10:40:19.786Z,27.77
2022-07-28T10:42:49.558Z,27.92
2022-07-28T10:45:18.458Z,27.66
2022-07-28T10:47:47.572Z,28.75
2022-07-28T10:50:16.682Z,28.54
2022-07-28T10:52:48.903Z,28.79
2022-07-28T10:55:32.219Z,28.35
2022-07-28T10:58:12.294Z,27.83
2022-07-28T11:00:59.814Z,28.10
2022-07-28T11:03:43.094Z,27.89
2022-07-28T11:06:30.445Z,28.50
2022-07-28T11:09:01.281Z,28.48
2022-07-28T11:11:46.874Z,28.19
2022-07-28T11:14:39.024Z,29.35
2022-07-28T11:17:24.548Z,28.67
2022-07-28T11:22:51.898Z,29.54
2022-07-28T11:25:22.640Z,28.91
2022-07-28T11:28:05.677Z,28.55
2022-07-28T11:30:58.372Z,29.43
2022-07-28T11:33:57.169Z,29.42
2022-07-28T11:36:25.624Z,29.52
2022-07-28T11:39:24.423Z,29.02
2022-07-28T11:41:53.442Z,29.48
2022-07-28T11:44:27.350Z,29.38
2022-07-28T11:47:17.674Z,29.30
2022-07-28T11:49:47.050Z,30.18
2022-07-28T11:52:21.762Z,30.48
2022-07-28T11:54:55.252Z,29.61
2022-07-28T11:57:26.250Z,29.21
2022-07-28T11:59:58.843Z,29.11
2022-07-28T12:02:31.553Z,29.54
2022-07-28T12:05:05.637Z,29.48
2022-07-28T12:07:38.139Z,30.03
2022-07-28T12:10:53.892Z,30.65
2022-07-28T12:13:29.034Z,31.22
2022-07-28T12:15:57.957Z,31.08
2022-07-28T12:18:27.993Z,31.27
2022-07-28T12:20:59.449Z,31.67
2022-07-28T12:23:39.155Z,31.01
2022-07-28T12:26:34.481Z,31.77
2022-07-28T12:29:13.208Z,31.66
2022-07-28T12:31:55.236Z,31.38
2022-07-28T12:34:28.592Z,31.79
2022-07-28T12:36:59.863Z,31.46
2022-07-28T12:39:28.821Z,31.50
2022-07-28T12:42:05.455Z,32.28
2022-07-28T12:44:38.502Z,32.11
2022-07-28T12:47:09.347Z,31.60
2022-07-28T12:49:40.825Z,31.81
2022-07-28T12:52:21.811Z,31.91
2022-07-28T12:54:54.717Z,31.04
2022-07-28T12:57:49.227Z,31.25
2022-07-28T13:00:22.614Z,31.55
2022-07-28T13:02:52.750Z,31.12
2022-07-28T13:05:54.773Z,31.48
2022-07-28T13:08:23.972Z,31.42
2022-07-28T13:10:57.374Z,31.97
2022-07-28T13:13:28.091Z,31.36
2022-07-28T13:16:17.372Z,31.68
2022-07-28T13:18:48.460Z,31.47
2022-07-28T13:21:37.349Z,31.47
2022-07-28T13:24:06.598Z,31.27
2022-07-28T13:26:34.984Z,31.48
2022-07-28T13:29:03.690Z,31.05
2022-07-28T13:31:41.583Z,31.49
2022-07-28T13:34:11.988Z,30.71
2022-07-28T13:36:42.098Z,31.30
2022-07-28T13:39:11.568Z,31.19
2022-07-28T13:41:48.505Z,31.06
2022-07-28T13:44:26.621Z,30.52
2022-07-28T13:46:55.340Z,30.81
2022-07-28T13:49:23.972Z,31.13
2022-07-28T13:51:53.886Z,30.60
2022-07-28T13:54:22.628Z,31.22
2022-07-28T13:56:52.892Z,31.01
2022-07-28T13:59:39.410Z,30.85
2022-07-28T14:02:15.420Z,31.06
2022-07-28T14:04:46.071Z,31.53
2022-07-28T14:07:21.603Z,32.29
2022-07-28T14:09:51.448Z,31.08
2022-07-28T14:12:20.467Z,31.23
2022-07-28T14:14:49.167Z,31.87
2022-07-28T14:20:13.100Z,31.28
2022-07-28T14:22:43.131Z,31.41
2022-07-28T14:25:13.476Z,31.57
2022-07-28T14:27:51.490Z,31.88
2022-07-28T14:30:20.589Z,31.46
2022-07-28T14:32:49.346Z,31.46
2022-07-28T14:35:17.997Z,31.46
2022-07-28T14:38:41.914Z,31.11
2022-07-28T14:40:39.502Z,32.48
2022-07-28T14:43:09.371Z,30.86
2022-07-28T14:45:51.392Z,31.71
2022-07-28T14:48:27.159Z,31.35
2022-07-28T14:50:57.120Z,31.69
2022-07-28T14:53:28.063Z,32.06
2022-07-28T14:55:57.256Z,31.13
2022-07-28T14:58:25.852Z,30.86
2022-07-28T15:00:54.756Z,31.23
2022-07-28T15:03:23.304Z,31.56
2022-07-28T15:05:51.751Z,31.77
2022-07-28T15:08:20.203Z,32.52
2022-07-28T15:10:55.749Z,31.42
2022-07-28T15:13:24.432Z,31.91
2022-07-28T15:15:52.919Z,31.26
2022-07-28T15:18:21.378Z,32.05
2022-07-28T15:20:54.654Z,31.67
2022-07-28T15:23:23.208Z,31.46
2022-07-28T15:25:53.152Z,31.58
2022-07-28T15:28:23.436Z,31.80
2022-07-28T15:30:52.063Z,32.47
2022-07-28T15:33:21.504Z,31.63
2022-07-28T15:35:57.775Z,31.68
2022-07-28T15:38:31.685Z,31.63
2022-07-28T15:41:00.701Z,31.53
2022-07-28T15:43:32.817Z,31.28
2022-07-28T15:46:08.453Z,31.44
2022-07-28T15:48:37.294Z,31.21
2022-07-28T15:51:05.936Z,31.53
2022-07-28T15:53:34.938Z,31.59
2022-07-28T15:56:04.580Z,31.79
2022-07-28T15:58:34.381Z,31.62
2022-07-28T16:01:02.933Z,31.25
2022-07-28T16:03:31.707Z,31.21
2022-07-28T16:06:00.347Z,31.52
2022-07-28T16:08:28.840Z,31.52
2022-07-28T16:10:57.410Z,32.29
2022-07-28T16:13:31.373Z,31.62
2022-07-28T16:16:08.480Z,31.76
2022-07-28T16:18:37.644Z,31.46
2022-07-28T16:21:07.097Z,31.67
2022-07-28T16:23:36.079Z,31.79
2022-07-28T16:26:08.010Z,31.52
2022-07-28T16:28:37.275Z,32.62
2022-07-28T16:31:07.505Z,32.15
2022-07-28T16:33:36.196Z,31.59
2022-07-28T16:36:05.532Z,31.90
2022-07-28T16:38:34.155Z,31.96
2022-07-28T16:41:02.598Z,31.90
2022-07-28T16:43:31.416Z,32.22
2022-07-28T16:45:59.960Z,32.39
2022-07-28T16:48:29.808Z,32.27
2022-07-28T16:50:58.265Z,32.45
2022-07-28T16:53:26.724Z,32.91
2022-07-28T16:55:55.221Z,32.43
2022-07-28T16:58:24.003Z,32.81
2022-07-28T17:00:52.588Z,32.59
2022-07-28T17:03:21.055Z,32.46
2022-07-28T17:05:50.975Z,32.73
2022-07-28T17:08:19.971Z,32.39
2022-07-28T17:10:48.877Z,31.98
2022-07-28T17:13:19.495Z,32.81
2022-07-28T17:15:48.201Z,32.00
2022-07-28T17:18:18.427Z,32.34
2022-07-28T17:20:47.848Z,32.69
2022-07-28T17:23:17.697Z,32.16
2022-07-28T17:26:16.156Z,32.19
2022-07-28T17:28:35.190Z,32.46
2022-07-28T17:31:03.818Z,32.36
2022-07-28T17:33:32.788Z,32.74
2022-07-28T17:36:01.357Z,32.75
2022-07-28T17:38:33.426Z,32.46
2022-07-28T17:41:04.166Z,32.29
2022-07-28T17:43:32.954Z,32.75
2022-07-28T17:46:02.704Z,32.65
2022-07-28T17:48:36.738Z,33.43
2022-07-28T17:51:05.461Z,34.51
2022-07-28T17:53:39.310Z,32.67
2022-07-28T17:56:08.870Z,32.67
2022-07-28T17:58:37.834Z,33.19
2022-07-28T18:01:12.170Z,33.49
2022-07-28T18:03:59.264Z,32.73
2022-07-28T18:06:32.428Z,32.51
2022-07-28T18:09:06.854Z,32.84
2022-07-28T18:11:57.562Z,34.59
2022-07-28T18:14:27.739Z,34.80
2022-07-28T18:16:56.824Z,33.13
2022-07-28T18:19:25.446Z,35.19
2022-07-28T18:21:54.014Z,33.18
2022-07-28T18:24:24.246Z,32.98
2022-07-28T18:26:53.928Z,34.03
2022-07-28T18:29:24.401Z,32.94
2022-07-28T18:31:53.656Z,33.02
2022-07-28T18:34:23.779Z,33.39
2022-07-28T18:36:53.854Z,33.18
2022-07-28T18:39:23.757Z,33.82
2022-07-28T18:41:55.330Z,34.09
2022-07-28T18:44:23.775Z,33.68
2022-07-28T18:46:52.214Z,34.03
2022-07-28T18:49:21.703Z,34.71
2022-07-28T18:51:50.458Z,33.93
2022-07-28T18:54:26.979Z,34.50
2022-07-28T18:56:57.871Z,34.36
2022-07-28T18:59:26.334Z,34.18
2022-07-28T19:01:54.783Z,34.21
2022-07-28T19:04:23.317Z,34.34
2022-07-28T19:06:51.737Z,34.61
2022-07-28T19:09:20.293Z,36.22
2022-07-28T19:11:48.749Z,35.42
2022-07-28T19:14:19.184Z,35.01
2022-07-28T19:16:47.995Z,35.49
2022-07-28T19:19:16.808Z,35.33
2022-07-28T19:21:45.250Z,35.29
2022-07-28T19:24:14.318Z,35.39
2022-07-28T19:26:45.163Z,35.47
2022-07-28T19:29:13.860Z,35.18
2022-07-28T19:31:43.754Z,35.55
2022-07-28T19:34:13.031Z,35.75
2022-07-28T19:36:41.942Z,35.53
2022-07-28T19:39:12.045Z,35.05
2022-07-28T19:41:41.886Z,35.30
2022-07-28T19:44:11.902Z,35.17
2022-07-28T19:46:41.155Z,35.10
2022-07-28T19:49:11.937Z,35.59
2022-07-28T19:51:40.611Z,35.01
2022-07-28T19:54:09.220Z,35.26
2022-07-28T19:56:39.448Z,35.08
2022-07-28T19:59:08.530Z,35.19
2022-07-28T20:01:37.190Z,35.14
2022-07-28T20:04:17.173Z,35.37
2022-07-28T20:06:45.890Z,35.12
2022-07-28T20:09:16.598Z,35.27
2022-07-28T20:11:45.507Z,35.14
2022-07-28T20:14:14.361Z,35.28
2022-07-28T20:16:43.016Z,35.40
2022-07-28T20:19:16.364Z,35.82
2022-07-28T20:21:44.756Z,37.23
2022-07-28T20:24:13.667Z,37.04
2022-07-28T20:26:42.423Z,36.57
2022-07-28T20:29:10.782Z,36.90
2022-07-28T20:31:39.530Z,37.08
2022-07-28T20:34:10.099Z,37.37
2022-07-28T20:36:40.322Z,37.24
2022-07-28T20:39:34.462Z,38.55
2022-07-28T20:41:57.434Z,38.30
2022-07-28T20:44:29.266Z,37.65
2022-07-28T20:47:00.488Z,37.41
2022-07-28T20:49:29.265Z,37.57
2022-07-28T20:51:59.568Z,37.51
2022-07-28T20:54:28.179Z,37.77
2022-07-28T20:56:56.761Z,37.77
2022-07-28T20:59:28.022Z,37.60
2022-07-28T21:01:57.289Z,37.44
2022-07-28T21:04:26.482Z,37.53
2022-07-28T21:07:01.831Z,37.33
2022-07-28T21:09:32.341Z,37.38
2022-07-28T21:12:01.001Z,37.61
2022-07-28T21:14:29.519Z,37.49
2022-07-28T21:16:58.073Z,37.55
2022-07-28T21:19:26.656Z,37.64
2022-07-28T21:21:55.170Z,37.59
2022-07-28T21:24:23.724Z,37.58
2022-07-28T21:26:53.571Z,37.70
2022-07-28T21:32:03.970Z,37.76
2022-07-28T21:34:34.333Z,37.84
2022-07-28T21:37:03.297Z,38.09
2022-07-28T21:39:31.957Z,37.84
2022-07-28T21:42:04.685Z,37.79
2022-07-28T21:44:36.057Z,37.77
2022-07-28T21:47:04.612Z,37.93
2022-07-28T21:49:33.391Z,37.82
2022-07-28T21:52:01.775Z,38.26
2022-07-28T21:54:30.281Z,38.39
2022-07-28T21:56:58.956Z,38.46
2022-07-28T21:59:28.776Z,38.26
2022-07-28T22:01:57.331Z,38.30
2022-07-28T22:04:25.924Z,39.55
2022-07-28T22:06:54.430Z,38.17
2022-07-28T22:09:23.173Z,38.14
2022-07-28T22:11:51.731Z,38.37
2022-07-28T22:14:20.179Z,38.73
2022-07-28T22:16:50.594Z,38.60
2022-07-28T22:19:19.089Z,38.99
2022-07-28T22:21:47.880Z,38.34
2022-07-28T22:24:17.029Z,38.25
2022-07-28T22:26:45.693Z,38.69
2022-07-28T22:29:14.280Z,38.11
2022-07-28T22:31:42.772Z,38.23
2022-07-28T22:34:13.527Z,38.03
2022-07-28T22:36:42.314Z,38.06
2022-07-28T22:39:10.816Z,38.12
2022-07-28T22:41:39.218Z,38.07
2022-07-28T22:44:10.449Z,38.31
2022-07-28T22:46:38.908Z,37.91
2022-07-28T22:49:07.479Z,37.44
2022-07-28T22:51:37.298Z,37.64
2022-07-28T22:54:06.218Z,37.63
2022-07-28T22:56:34.903Z,37.71
2022-07-28T22:59:07.444Z,37.58
2022-07-28T23:01:36.003Z,38.14
2022-07-28T23:04:06.019Z,37.67
2022-07-28T23:06:37.442Z,37.58
2022-07-28T23:09:06.818Z,37.79
2022-07-28T23:11:35.247Z,37.55
2022-07-28T23:14:03.636Z,37.61
2022-07-28T23:16:32.197Z,37.57
2022-07-28T23:19:00.639Z,37.61
2022-07-28T23:21:29.510Z,37.59
2022-07-28T23:23:59.365Z,37.78
2022-07-28T23:26:27.715Z,37.65
2022-07-28T23:28:56.890Z,38.02
2022-07-28T23:31:25.582Z,38.20
2022-07-28T23:33:57.391Z,38.62
2022-07-28T23:36:27.906Z,38.34
2022-07-28T23:38:58.716Z,38.55
2022-07-28T23:41:28.264Z,38.94
2022-07-28T23:43:56.639Z,38.99
2022-07-28T23:46:25.194Z,39.95
2022-07-28T23:48:53.705Z,39.33
2022-07-28T23:51:22.686Z,39.08
2022-07-28T23:54:11.054Z,39.13
2022-07-28T23:59:14.326Z,39.90
